Crown Point, Vermont
Current Conditions -  °F | °C
As of 8:35 AM on Friday 24 Oct 2014 (Local Time) from K6B0 Reporting Station
Light Rain Light Rain  
Wind Chill:   Ceiling: 400
Heat Index:   Visibility: 3mi
Dew Point:   Wind: 3mph
Humidity: 100%   Direction: 340°NNW
Pressure: 29.85"   Gusts: NA
Location:  44.0804°N, 73.3324°W
Report Text: K6B0 241235Z AUTO 34003KT 3SM -RA OVC004 05/05 A2985 RMK AO2 T00510051
Loading
Personal Weather Stations






























Interactive Weather Map
Tropical Storm Tracking
New forecast layout! Learn more

10-Day Weather Forecast

Advertisements
Track Severe Weather on mobile